Decoded Metar for UHSS (YUZHNO-SAKHALINSK in RUSSIA) (IATA:UUS) | Meteo·Mobile Aviation Weather
aviador You're here:

UHSS Decoded Metar

YUZHNO-SAKHALINSK in RUSSIA
Report Time2018-08-21 11:30:00
UTC Time2018-08-21 12:10:34
Flight Rules ifr IFR
WindCalm
Visibility9999 m
Phenomena:N/A
Clouds:Broken 006 Hf
Broken CB 021 Hf
Ceiling600 ft
Temp17°C (ISA +2)
Dew Point17°C (100% RH)
QNH1010 hPa
Density Alt719 ft
Elevation102 ft
Report Wrong Elevation
Raw Report
METAR UHSS 211130Z 00000MPS 9999 BKN006 BKN021CB 17/17 Q1010 R19/70D
NOSIG RMK MT OBSC QFE756/1008=

Extra information for UHSS:More info

Metar Taf Metar & Taf Last 4 Metars F.Rules Stats Wind Profile Meteogram Temp Stats Airport Information Weather charts Add Link Nearby VenuesMetar ALERT Operation Metar Decoded Social comments